TVS4432 LPFR-LFOK
Flight info
| Callsign | TVS4432 |
|---|---|
| Flight time | 2h 11m |
| Altitude | 19000 |
| Route | TUPIX Y135 NAPES/N0458F380 DCT PIMUR DCT OXACA DCT DGO DCT SSN DCT URUNA DCT BTZ DCT VAVIX DCT OSMOB DCT UVELI DCT LMG DCT BEBIX DCT GUERE DCT KUKOR DCT ENUPA DCT MOU/N0395F180 B373 TRO |
| Aircraft | B38M/M-SDE1FGHILORVWXY/HB1 |
Departure
| Time | 2026-04-24 21:21 |
|---|---|
| Airport | Faro - Gago Coutinho International Airport (LPFR) |
Arrival
| Time | 2026-04-24 23:32 |
|---|---|
| Airport | Chalons Vatry airport (LFOK) |
| Time | Latitude | Longitude | Altitude | Speed | Heading |
|---|---|---|---|---|---|
| 2026-04-24 21:11 | 37.01808 | -7.96218 | 22 ft | 0 kts | 9° |
| 2026-04-24 21:15 | 37.01787 | -7.96222 | 26 ft | 4 kts | 9° |
| 2026-04-24 21:15 | 37.01765 | -7.96227 | 24 ft | 4 kts | 21° |
| 2026-04-24 21:15 | 37.01747 | -7.96245 | 25 ft | 4 kts | 72° |
| 2026-04-24 21:16 | 37.01748 | -7.96274 | 25 ft | 4 kts | 99° |
| 2026-04-24 21:16 | 37.01750 | -7.96290 | 23 ft | 1 kts | 99° |
| 2026-04-24 21:18 | 37.01750 | -7.96286 | 25 ft | 2 kts | 99° |
| 2026-04-24 21:18 | 37.01740 | -7.96228 | 22 ft | 13 kts | 102° |
| 2026-04-24 21:19 | 37.01689 | -7.96082 | 22 ft | 16 kts | 158° |
| 2026-04-24 21:19 | 37.01577 | -7.96090 | 23 ft | 18 kts | 155° |
| 2026-04-24 21:19 | 37.01533 | -7.95928 | 23 ft | 26 kts | 100° |
| 2026-04-24 21:19 | 37.01450 | -7.95834 | 24 ft | 15 kts | 194° |
| 2026-04-24 21:20 | 37.01331 | -7.95899 | 24 ft | 6 kts | 283° |
| 2026-04-24 21:20 | 37.01368 | -7.96063 | 23 ft | 53 kts | 281° |
| 2026-04-24 21:20 | 37.01488 | -7.96888 | 26 ft | 139 kts | 280° |
| 2026-04-24 21:21 | 37.01681 | -7.98283 | 450 ft | 178 kts | 279° |
| 2026-04-24 21:21 | 37.01873 | -7.99612 | 1958 ft | 138 kts | 284° |
| 2026-04-24 21:21 | 37.02056 | -8.00844 | 2660 ft | 156 kts | 285° |
| 2026-04-24 21:21 | 37.02271 | -8.02275 | 3190 ft | 178 kts | 284° |
| 2026-04-24 21:22 | 37.02508 | -8.03889 | 3837 ft | 199 kts | 283° |
| 2026-04-24 21:22 | 37.02769 | -8.05681 | 4396 ft | 221 kts | 283° |
| 2026-04-24 21:22 | 37.02954 | -8.07682 | 4999 ft | 245 kts | 266° |
| 2026-04-24 21:22 | 37.02401 | -8.09772 | 5624 ft | 266 kts | 237° |
| 2026-04-24 21:23 | 37.00998 | -8.11342 | 6294 ft | 282 kts | 202° |
| 2026-04-24 21:23 | 36.99103 | -8.11666 | 7305 ft | 275 kts | 168° |
| 2026-04-24 21:23 | 36.97389 | -8.10672 | 8229 ft | 276 kts | 136° |
| 2026-04-24 21:23 | 36.96389 | -8.08670 | 9166 ft | 275 kts | 103° |
| 2026-04-24 21:24 | 36.96427 | -8.06289 | 10091 ft | 277 kts | 71° |
| 2026-04-24 21:24 | 36.97116 | -8.04036 | 10754 ft | 291 kts | 74° |
| 2026-04-24 21:24 | 36.97500 | -8.01460 | 11186 ft | 311 kts | 80° |
| 2026-04-24 21:24 | 36.97872 | -7.98693 | 11582 ft | 332 kts | 79° |
| 2026-04-24 21:25 | 36.98286 | -7.95772 | 12050 ft | 348 kts | 78° |
| 2026-04-24 21:25 | 36.98735 | -7.92745 | 12671 ft | 358 kts | 78° |
| 2026-04-24 21:25 | 36.99215 | -7.89677 | 13532 ft | 361 kts | 77° |
| 2026-04-24 21:25 | 36.99714 | -7.86565 | 14247 ft | 368 kts | 77° |
| 2026-04-24 21:26 | 37.00225 | -7.83410 | 15008 ft | 371 kts | 77° |
| 2026-04-24 21:26 | 37.00745 | -7.80234 | 15779 ft | 374 kts | 77° |
| 2026-04-24 21:26 | 37.01272 | -7.77025 | 16520 ft | 378 kts | 77° |
| 2026-04-24 21:26 | 37.01804 | -7.73790 | 17280 ft | 381 kts | 77° |
| 2026-04-24 21:27 | 37.02341 | -7.70524 | 18007 ft | 385 kts | 77° |
| 2026-04-24 21:27 | 37.02876 | -7.67267 | 18673 ft | 388 kts | 77° |
| 2026-04-24 21:27 | 37.03423 | -7.63940 | 19297 ft | 391 kts | 77° |
| 2026-04-24 21:27 | 37.03976 | -7.60576 | 19925 ft | 395 kts | 77° |
| 2026-04-24 21:28 | 37.04528 | -7.57202 | 20526 ft | 398 kts | 77° |
| 2026-04-24 21:28 | 37.05087 | -7.53795 | 21129 ft | 401 kts | 77° |
| 2026-04-24 21:28 | 37.05649 | -7.50359 | 21745 ft | 404 kts | 77° |
| 2026-04-24 21:28 | 37.06214 | -7.46900 | 22346 ft | 407 kts | 77° |
| 2026-04-24 21:29 | 37.06784 | -7.43409 | 22947 ft | 409 kts | 76° |
| 2026-04-24 21:29 | 37.07349 | -7.39950 | 23524 ft | 412 kts | 76° |
| 2026-04-24 21:29 | 37.08229 | -7.36534 | 23999 ft | 412 kts | 64° |
| 2026-04-24 21:29 | 37.09373 | -7.33220 | 24436 ft | 416 kts | 65° |
| 2026-04-24 21:30 | 37.10506 | -7.29869 | 24868 ft | 420 kts | 65° |
| 2026-04-24 21:30 | 37.11654 | -7.26487 | 25300 ft | 423 kts | 66° |
| 2026-04-24 21:30 | 37.12814 | -7.23076 | 25726 ft | 426 kts | 66° |
| 2026-04-24 21:30 | 37.13983 | -7.19639 | 26161 ft | 430 kts | 67° |
| 2026-04-24 21:31 | 37.15141 | -7.16227 | 26594 ft | 432 kts | 67° |
| 2026-04-24 21:31 | 37.16320 | -7.12750 | 26989 ft | 435 kts | 67° |
| 2026-04-24 21:31 | 37.17517 | -7.09247 | 27388 ft | 439 kts | 65° |
| 2026-04-24 21:31 | 37.19131 | -7.05997 | 27772 ft | 443 kts | 50° |
| 2026-04-24 21:32 | 37.21405 | -7.03364 | 28177 ft | 447 kts | 36° |
| 2026-04-24 21:32 | 37.24135 | -7.01441 | 28521 ft | 452 kts | 28° |
| 2026-04-24 21:32 | 37.26896 | -6.99521 | 28866 ft | 455 kts | 31° |
| 2026-04-24 21:32 | 37.29651 | -6.97510 | 29179 ft | 459 kts | 31° |
| 2026-04-24 21:33 | 37.32430 | -6.95483 | 29503 ft | 463 kts | 31° |
| 2026-04-24 21:33 | 37.34277 | -6.94137 | 29752 ft | 465 kts | 31° |
| 2026-04-24 21:33 | 37.38038 | -6.91395 | 30221 ft | 469 kts | 31° |
| 2026-04-24 21:33 | 37.40872 | -6.89327 | 30558 ft | 471 kts | 31° |
| 2026-04-24 21:34 | 37.43697 | -6.87265 | 31035 ft | 468 kts | 31° |
| 2026-04-24 21:34 | 37.46507 | -6.85211 | 31568 ft | 465 kts | 31° |
| 2026-04-24 21:34 | 37.49293 | -6.83172 | 32094 ft | 462 kts | 31° |
| 2026-04-24 21:34 | 37.52031 | -6.81166 | 32547 ft | 461 kts | 31° |
| 2026-04-24 21:35 | 37.54801 | -6.79136 | 32979 ft | 460 kts | 31° |
| 2026-04-24 21:35 | 37.57570 | -6.77104 | 33400 ft | 460 kts | 31° |
| 2026-04-24 21:35 | 37.60333 | -6.75076 | 33845 ft | 459 kts | 31° |
| 2026-04-24 21:35 | 37.63079 | -6.73058 | 34279 ft | 457 kts | 31° |
| 2026-04-24 21:36 | 37.65826 | -6.71038 | 34667 ft | 456 kts | 30° |
| 2026-04-24 21:36 | 37.68563 | -6.69024 | 35012 ft | 455 kts | 30° |
| 2026-04-24 21:36 | 37.71310 | -6.66999 | 35368 ft | 455 kts | 30° |
| 2026-04-24 21:36 | 37.74038 | -6.64988 | 35710 ft | 454 kts | 30° |
| 2026-04-24 21:37 | 37.76762 | -6.62978 | 36058 ft | 453 kts | 30° |
| 2026-04-24 21:37 | 37.79479 | -6.60970 | 36374 ft | 453 kts | 30° |
| 2026-04-24 21:37 | 37.82205 | -6.58954 | 36649 ft | 453 kts | 29° |
| 2026-04-24 21:37 | 37.84921 | -6.56945 | 36954 ft | 453 kts | 29° |
| 2026-04-24 21:38 | 37.87643 | -6.54929 | 37264 ft | 452 kts | 29° |
| 2026-04-24 21:38 | 37.90353 | -6.52921 | 37557 ft | 451 kts | 29° |
| 2026-04-24 21:38 | 37.93026 | -6.50937 | 37853 ft | 451 kts | 29° |
| 2026-04-24 21:38 | 37.95726 | -6.48933 | 38103 ft | 451 kts | 28° |
| 2026-04-24 21:39 | 37.98430 | -6.46922 | 38133 ft | 451 kts | 28° |
| 2026-04-24 21:39 | 38.03832 | -6.42902 | 38108 ft | 451 kts | 29° |
| 2026-04-24 21:40 | 38.09278 | -6.38843 | 38100 ft | 453 kts | 29° |
| 2026-04-24 21:40 | 38.14714 | -6.34784 | 38099 ft | 453 kts | 29° |
| 2026-04-24 21:41 | 38.20137 | -6.30728 | 38097 ft | 453 kts | 29° |
| 2026-04-24 21:41 | 38.25566 | -6.26660 | 38095 ft | 453 kts | 29° |
| 2026-04-24 21:42 | 38.30959 | -6.22612 | 38096 ft | 453 kts | 29° |
| 2026-04-24 21:42 | 38.36386 | -6.18531 | 38094 ft | 453 kts | 29° |
| 2026-04-24 21:43 | 38.41813 | -6.14443 | 38094 ft | 453 kts | 29° |
| 2026-04-24 21:43 | 38.47233 | -6.10353 | 38094 ft | 452 kts | 29° |
| 2026-04-24 21:44 | 38.52620 | -6.06280 | 38084 ft | 453 kts | 30° |
| 2026-04-24 21:44 | 38.58054 | -6.02166 | 38088 ft | 454 kts | 30° |
| 2026-04-24 21:45 | 38.63485 | -5.98046 | 38089 ft | 454 kts | 30° |
| 2026-04-24 21:45 | 38.68925 | -5.93912 | 38089 ft | 454 kts | 30° |
| 2026-04-24 21:46 | 38.74366 | -5.89769 | 38084 ft | 454 kts | 30° |
| 2026-04-24 21:46 | 38.79809 | -5.85618 | 38086 ft | 457 kts | 30° |
| 2026-04-24 21:47 | 38.85239 | -5.81469 | 38081 ft | 457 kts | 30° |
| 2026-04-24 21:47 | 38.90706 | -5.77285 | 38084 ft | 457 kts | 30° |
| 2026-04-24 21:48 | 38.96165 | -5.73099 | 38080 ft | 457 kts | 30° |
| 2026-04-24 21:48 | 39.01624 | -5.68905 | 38079 ft | 458 kts | 30° |
| 2026-04-24 21:49 | 39.07085 | -5.64702 | 38082 ft | 460 kts | 30° |
| 2026-04-24 21:49 | 39.12584 | -5.60462 | 38084 ft | 460 kts | 30° |
| 2026-04-24 21:50 | 39.18077 | -5.56219 | 38087 ft | 460 kts | 31° |
| 2026-04-24 21:50 | 39.23570 | -5.51969 | 38082 ft | 460 kts | 31° |
| 2026-04-24 21:51 | 39.29058 | -5.47713 | 38090 ft | 459 kts | 31° |
| 2026-04-24 21:51 | 39.34507 | -5.43481 | 38092 ft | 459 kts | 31° |
| 2026-04-24 21:52 | 39.39060 | -5.39938 | 38095 ft | 459 kts | 31° |
| 2026-04-24 21:52 | 39.44540 | -5.35668 | 38093 ft | 459 kts | 31° |
| 2026-04-24 21:53 | 39.50018 | -5.31390 | 38092 ft | 459 kts | 31° |
| 2026-04-24 21:53 | 39.55480 | -5.27117 | 38093 ft | 458 kts | 31° |
| 2026-04-24 21:54 | 39.60941 | -5.22838 | 38095 ft | 458 kts | 31° |
| 2026-04-24 21:54 | 39.66385 | -5.18563 | 38088 ft | 458 kts | 31° |
| 2026-04-24 21:55 | 39.71837 | -5.14274 | 38089 ft | 458 kts | 31° |
| 2026-04-24 21:55 | 39.77281 | -5.09983 | 38088 ft | 457 kts | 31° |
| 2026-04-24 21:56 | 39.82689 | -5.05713 | 38089 ft | 457 kts | 31° |
| 2026-04-24 21:56 | 39.88131 | -5.01408 | 38088 ft | 457 kts | 31° |
| 2026-04-24 21:57 | 39.93566 | -4.97100 | 38087 ft | 457 kts | 32° |
| 2026-04-24 21:57 | 39.98998 | -4.92787 | 38091 ft | 457 kts | 32° |
| 2026-04-24 21:58 | 40.04432 | -4.88464 | 38102 ft | 457 kts | 32° |
| 2026-04-24 21:58 | 40.09867 | -4.84131 | 38094 ft | 457 kts | 32° |
| 2026-04-24 21:59 | 40.15293 | -4.79799 | 38108 ft | 457 kts | 32° |
| 2026-04-24 21:59 | 40.20727 | -4.75451 | 38112 ft | 458 kts | 32° |
| 2026-04-24 22:00 | 40.26161 | -4.71095 | 38104 ft | 458 kts | 32° |
| 2026-04-24 22:00 | 40.31599 | -4.66727 | 38122 ft | 458 kts | 32° |
| 2026-04-24 22:01 | 40.37028 | -4.62359 | 38118 ft | 458 kts | 32° |
| 2026-04-24 22:01 | 40.42430 | -4.58003 | 38127 ft | 460 kts | 33° |
| 2026-04-24 22:02 | 40.47906 | -4.53580 | 38130 ft | 462 kts | 33° |
| 2026-04-24 22:02 | 40.53384 | -4.49146 | 38137 ft | 463 kts | 33° |
| 2026-04-24 22:03 | 40.58866 | -4.44701 | 38141 ft | 462 kts | 33° |
| 2026-04-24 22:03 | 40.64345 | -4.40249 | 38138 ft | 463 kts | 33° |
| 2026-04-24 22:04 | 40.69818 | -4.35794 | 38140 ft | 462 kts | 33° |
| 2026-04-24 22:04 | 40.75295 | -4.31327 | 38140 ft | 463 kts | 33° |
| 2026-04-24 22:05 | 40.80766 | -4.26855 | 38142 ft | 463 kts | 33° |
| 2026-04-24 22:05 | 40.86252 | -4.22362 | 38145 ft | 468 kts | 33° |
| 2026-04-24 22:06 | 40.91768 | -4.17837 | 38142 ft | 470 kts | 33° |
| 2026-04-24 22:06 | 40.97319 | -4.13272 | 38149 ft | 469 kts | 33° |
| 2026-04-24 22:07 | 41.02864 | -4.08705 | 38153 ft | 469 kts | 33° |
| 2026-04-24 22:07 | 41.08412 | -4.04125 | 38146 ft | 470 kts | 33° |
| 2026-04-24 22:08 | 41.13970 | -3.99527 | 38148 ft | 471 kts | 33° |
| 2026-04-24 22:08 | 41.19525 | -3.94923 | 38151 ft | 471 kts | 33° |
| 2026-04-24 22:09 | 41.25089 | -3.90302 | 38150 ft | 471 kts | 33° |
| 2026-04-24 22:09 | 41.30651 | -3.85674 | 38149 ft | 471 kts | 33° |
| 2026-04-24 22:10 | 41.36198 | -3.81048 | 38138 ft | 472 kts | 33° |
| 2026-04-24 22:10 | 41.41780 | -3.76384 | 38156 ft | 474 kts | 33° |
| 2026-04-24 22:11 | 41.47365 | -3.71708 | 38143 ft | 474 kts | 33° |
| 2026-04-24 22:11 | 41.52907 | -3.67058 | 38149 ft | 474 kts | 33° |
| 2026-04-24 22:12 | 41.58505 | -3.62351 | 38152 ft | 475 kts | 33° |
| 2026-04-24 22:12 | 41.64087 | -3.57648 | 38146 ft | 474 kts | 33° |
| 2026-04-24 22:13 | 41.69671 | -3.52934 | 38144 ft | 474 kts | 33° |
| 2026-04-24 22:13 | 41.75256 | -3.48209 | 38140 ft | 475 kts | 33° |
| 2026-04-24 22:14 | 41.80840 | -3.43475 | 38149 ft | 475 kts | 33° |
| 2026-04-24 22:14 | 41.86419 | -3.38735 | 38144 ft | 474 kts | 33° |
| 2026-04-24 22:15 | 41.91991 | -3.33991 | 38149 ft | 474 kts | 33° |
| 2026-04-24 22:15 | 41.97523 | -3.29272 | 38150 ft | 475 kts | 33° |
| 2026-04-24 22:16 | 42.03103 | -3.24501 | 38151 ft | 475 kts | 33° |
| 2026-04-24 22:16 | 42.08673 | -3.19729 | 38161 ft | 475 kts | 33° |
| 2026-04-24 22:17 | 42.14246 | -3.14944 | 38161 ft | 475 kts | 33° |
| 2026-04-24 22:17 | 42.19813 | -3.10154 | 38166 ft | 475 kts | 33° |
| 2026-04-24 22:18 | 42.25396 | -3.05341 | 38158 ft | 475 kts | 34° |
| 2026-04-24 22:18 | 42.30966 | -3.00528 | 38164 ft | 475 kts | 33° |
| 2026-04-24 22:19 | 42.36506 | -2.95732 | 38165 ft | 476 kts | 33° |
| 2026-04-24 22:19 | 42.42086 | -2.90890 | 38162 ft | 478 kts | 33° |
| 2026-04-24 22:20 | 42.47414 | -2.85555 | 38176 ft | 475 kts | 43° |
| 2026-04-24 22:20 | 42.52373 | -2.79597 | 38157 ft | 476 kts | 43° |
| 2026-04-24 22:21 | 42.57329 | -2.73624 | 38164 ft | 476 kts | 43° |
| 2026-04-24 22:21 | 42.62293 | -2.67625 | 38161 ft | 477 kts | 43° |
| 2026-04-24 22:22 | 42.67242 | -2.61631 | 38173 ft | 475 kts | 43° |
| 2026-04-24 22:22 | 42.72168 | -2.55651 | 38175 ft | 475 kts | 43° |
| 2026-04-24 22:23 | 42.77062 | -2.49697 | 38174 ft | 475 kts | 43° |
| 2026-04-24 22:23 | 42.81986 | -2.43692 | 38174 ft | 475 kts | 43° |
| 2026-04-24 22:24 | 42.86899 | -2.37689 | 38176 ft | 475 kts | 43° |
| 2026-04-24 22:24 | 42.91816 | -2.31667 | 38171 ft | 475 kts | 43° |
| 2026-04-24 22:25 | 42.96722 | -2.25645 | 38181 ft | 472 kts | 43° |
| 2026-04-24 22:25 | 43.01582 | -2.19665 | 38166 ft | 469 kts | 43° |
| 2026-04-24 22:26 | 43.06400 | -2.13726 | 38173 ft | 469 kts | 43° |
| 2026-04-24 22:26 | 43.11247 | -2.07736 | 38171 ft | 469 kts | 43° |
| 2026-04-24 22:27 | 43.16081 | -2.01749 | 38182 ft | 469 kts | 43° |
| 2026-04-24 22:27 | 43.20922 | -1.95740 | 38185 ft | 469 kts | 43° |
| 2026-04-24 22:28 | 43.25753 | -1.89733 | 38175 ft | 470 kts | 43° |
| 2026-04-24 22:28 | 43.30598 | -1.83715 | 38177 ft | 469 kts | 41° |
| 2026-04-24 22:29 | 43.38349 | -1.75462 | 38182 ft | 470 kts | 39° |
| 2026-04-24 22:29 | 43.43491 | -1.69903 | 38180 ft | 470 kts | 39° |
| 2026-04-24 22:30 | 43.48637 | -1.64317 | 38189 ft | 471 kts | 39° |
| 2026-04-24 22:30 | 43.53777 | -1.58726 | 38187 ft | 471 kts | 39° |
| 2026-04-24 22:31 | 43.58898 | -1.53144 | 38185 ft | 471 kts | 39° |
| 2026-04-24 22:31 | 43.64033 | -1.47534 | 38166 ft | 470 kts | 39° |
| 2026-04-24 22:32 | 43.69157 | -1.41922 | 38167 ft | 470 kts | 39° |
| 2026-04-24 22:32 | 43.74283 | -1.36296 | 38162 ft | 470 kts | 39° |
| 2026-04-24 22:33 | 43.79403 | -1.30664 | 38156 ft | 470 kts | 39° |
| 2026-04-24 22:33 | 43.84529 | -1.25014 | 38163 ft | 470 kts | 39° |
| 2026-04-24 22:34 | 43.89642 | -1.19364 | 38155 ft | 470 kts | 39° |
| 2026-04-24 22:34 | 43.94749 | -1.13708 | 38147 ft | 470 kts | 39° |
| 2026-04-24 22:35 | 43.99865 | -1.08029 | 38146 ft | 471 kts | 38° |
| 2026-04-24 22:35 | 44.04944 | -1.02379 | 38156 ft | 471 kts | 38° |
| 2026-04-24 22:36 | 44.10061 | -0.96674 | 38151 ft | 471 kts | 38° |
| 2026-04-24 22:36 | 44.15168 | -0.90965 | 38143 ft | 471 kts | 39° |
| 2026-04-24 22:37 | 44.20278 | -0.85241 | 38140 ft | 471 kts | 39° |
| 2026-04-24 22:37 | 44.25381 | -0.79513 | 38141 ft | 471 kts | 39° |
| 2026-04-24 22:38 | 44.30480 | -0.73776 | 38145 ft | 470 kts | 38° |
| 2026-04-24 22:38 | 44.34709 | -0.69006 | 38139 ft | 469 kts | 38° |
| 2026-04-24 22:39 | 44.40608 | -0.62339 | 38139 ft | 469 kts | 38° |
| 2026-04-24 22:39 | 44.45680 | -0.56592 | 38140 ft | 469 kts | 38° |
| 2026-04-24 22:40 | 44.49923 | -0.51774 | 38131 ft | 469 kts | 38° |
| 2026-04-24 22:40 | 44.54980 | -0.46020 | 38128 ft | 469 kts | 38° |
| 2026-04-24 22:41 | 44.60008 | -0.40285 | 38131 ft | 469 kts | 38° |
| 2026-04-24 22:41 | 44.65062 | -0.34508 | 38132 ft | 469 kts | 38° |
| 2026-04-24 22:42 | 44.70121 | -0.28712 | 38128 ft | 469 kts | 38° |
| 2026-04-24 22:42 | 44.75164 | -0.22920 | 38125 ft | 469 kts | 39° |
| 2026-04-24 22:43 | 44.80217 | -0.17102 | 38125 ft | 469 kts | 39° |
| 2026-04-24 22:43 | 44.85269 | -0.11274 | 38119 ft | 469 kts | 39° |
| 2026-04-24 22:44 | 44.90316 | -0.05436 | 38126 ft | 469 kts | 39° |
| 2026-04-24 22:44 | 44.95355 | 0.00405 | 38115 ft | 469 kts | 39° |
| 2026-04-24 22:45 | 45.00364 | 0.06226 | 38125 ft | 469 kts | 39° |
| 2026-04-24 22:45 | 45.05395 | 0.12085 | 38126 ft | 469 kts | 39° |
| 2026-04-24 22:46 | 45.10431 | 0.17965 | 38121 ft | 469 kts | 39° |
| 2026-04-24 22:46 | 45.15463 | 0.23854 | 38115 ft | 469 kts | 39° |
| 2026-04-24 22:47 | 45.20495 | 0.29755 | 38123 ft | 469 kts | 39° |
| 2026-04-24 22:47 | 45.25527 | 0.35672 | 38114 ft | 470 kts | 39° |
| 2026-04-24 22:48 | 45.30551 | 0.41593 | 38109 ft | 470 kts | 39° |
| 2026-04-24 22:48 | 45.35579 | 0.47533 | 38107 ft | 469 kts | 39° |
| 2026-04-24 22:49 | 45.40590 | 0.53467 | 38116 ft | 469 kts | 39° |
| 2026-04-24 22:49 | 45.45613 | 0.59429 | 38114 ft | 469 kts | 39° |
| 2026-04-24 22:50 | 45.50596 | 0.65359 | 38109 ft | 470 kts | 39° |
| 2026-04-24 22:50 | 45.55647 | 0.71383 | 38111 ft | 469 kts | 39° |
| 2026-04-24 22:51 | 45.60622 | 0.77328 | 38112 ft | 470 kts | 39° |
| 2026-04-24 22:51 | 45.65625 | 0.83321 | 38112 ft | 469 kts | 39° |
| 2026-04-24 22:52 | 45.70629 | 0.89329 | 38115 ft | 469 kts | 39° |
| 2026-04-24 22:52 | 45.75621 | 0.95337 | 38126 ft | 469 kts | 39° |
| 2026-04-24 22:53 | 45.80565 | 1.01439 | 38123 ft | 469 kts | 43° |
| 2026-04-24 22:53 | 45.84786 | 1.08578 | 38131 ft | 470 kts | 57° |
| 2026-04-24 22:54 | 45.86237 | 1.12754 | 38099 ft | 469 kts | 71° |
| 2026-04-24 22:54 | 45.87243 | 1.17161 | 38137 ft | 471 kts | 72° |
| 2026-04-24 22:54 | 45.89875 | 1.25712 | 38124 ft | 470 kts | 62° |
| 2026-04-24 22:55 | 45.92848 | 1.34088 | 38131 ft | 470 kts | 62° |
| 2026-04-24 22:55 | 45.95812 | 1.42459 | 38131 ft | 470 kts | 62° |
| 2026-04-24 22:56 | 45.98768 | 1.50830 | 38134 ft | 470 kts | 62° |
| 2026-04-24 22:56 | 46.01725 | 1.59235 | 38134 ft | 470 kts | 62° |
| 2026-04-24 22:57 | 46.04666 | 1.67617 | 38136 ft | 469 kts | 62° |
| 2026-04-24 22:57 | 46.07601 | 1.76009 | 38138 ft | 469 kts | 62° |
| 2026-04-24 22:58 | 46.10530 | 1.84412 | 38138 ft | 469 kts | 63° |
| 2026-04-24 22:58 | 46.13453 | 1.92824 | 38137 ft | 469 kts | 63° |
| 2026-04-24 22:59 | 46.16370 | 2.01242 | 38144 ft | 469 kts | 63° |
| 2026-04-24 23:00 | 46.20709 | 2.13820 | 38134 ft | 468 kts | 63° |
| 2026-04-24 23:00 | 46.23605 | 2.22248 | 38136 ft | 469 kts | 63° |
| 2026-04-24 23:01 | 46.26498 | 2.30692 | 38134 ft | 468 kts | 63° |
| 2026-04-24 23:01 | 46.29378 | 2.39126 | 38129 ft | 468 kts | 63° |
| 2026-04-24 23:02 | 46.32262 | 2.47598 | 38131 ft | 470 kts | 63° |
| 2026-04-24 23:02 | 46.35144 | 2.56093 | 38130 ft | 470 kts | 62° |
| 2026-04-24 23:03 | 46.38021 | 2.64600 | 38131 ft | 471 kts | 63° |
| 2026-04-24 23:03 | 46.40894 | 2.73124 | 38121 ft | 471 kts | 63° |
| 2026-04-24 23:04 | 46.43755 | 2.81639 | 38127 ft | 471 kts | 63° |
| 2026-04-24 23:04 | 46.47421 | 2.89328 | 38100 ft | 458 kts | 36° |
| 2026-04-24 23:04 | 46.50039 | 2.91791 | 38144 ft | 455 kts | 24° |
| 2026-04-24 23:05 | 46.52947 | 2.93572 | 38125 ft | 454 kts | 18° |
| 2026-04-24 23:05 | 46.58846 | 2.96893 | 38119 ft | 455 kts | 19° |
| 2026-04-24 23:06 | 46.64729 | 3.00287 | 38125 ft | 455 kts | 19° |
| 2026-04-24 23:06 | 46.70617 | 3.03702 | 38124 ft | 455 kts | 19° |
| 2026-04-24 23:07 | 46.76496 | 3.07120 | 38124 ft | 455 kts | 19° |
| 2026-04-24 23:07 | 46.82378 | 3.10547 | 38129 ft | 455 kts | 19° |
| 2026-04-24 23:08 | 46.88258 | 3.13983 | 38130 ft | 455 kts | 19° |
| 2026-04-24 23:08 | 46.94137 | 3.17425 | 38147 ft | 455 kts | 19° |
| 2026-04-24 23:09 | 47.00005 | 3.20869 | 38130 ft | 453 kts | 19° |
| 2026-04-24 23:09 | 47.05818 | 3.24289 | 38135 ft | 453 kts | 19° |
| 2026-04-24 23:10 | 47.11677 | 3.27743 | 37947 ft | 451 kts | 19° |
| 2026-04-24 23:10 | 47.14600 | 3.29471 | 37123 ft | 453 kts | 19° |
| 2026-04-24 23:10 | 47.17521 | 3.31200 | 36432 ft | 452 kts | 19° |
| 2026-04-24 23:10 | 47.20440 | 3.32927 | 35745 ft | 451 kts | 18° |
| 2026-04-24 23:11 | 47.23333 | 3.34643 | 35289 ft | 446 kts | 18° |
| 2026-04-24 23:11 | 47.26203 | 3.36343 | 34720 ft | 443 kts | 18° |
| 2026-04-24 23:11 | 47.29089 | 3.38067 | 33554 ft | 454 kts | 17° |
| 2026-04-24 23:11 | 47.32053 | 3.39847 | 32190 ft | 466 kts | 18° |
| 2026-04-24 23:12 | 47.35073 | 3.41659 | 30912 ft | 467 kts | 19° |
| 2026-04-24 23:12 | 47.38061 | 3.43445 | 29879 ft | 459 kts | 19° |
| 2026-04-24 23:12 | 47.41012 | 3.45208 | 28940 ft | 458 kts | 19° |
| 2026-04-24 23:12 | 47.43962 | 3.46974 | 27988 ft | 458 kts | 20° |
| 2026-04-24 23:13 | 47.46925 | 3.48752 | 26980 ft | 460 kts | 20° |
| 2026-04-24 23:13 | 47.49878 | 3.50523 | 26215 ft | 457 kts | 20° |
| 2026-04-24 23:13 | 47.52811 | 3.52282 | 25469 ft | 453 kts | 20° |
| 2026-04-24 23:13 | 47.55720 | 3.54028 | 24731 ft | 450 kts | 21° |
| 2026-04-24 23:14 | 47.58579 | 3.55747 | 24005 ft | 447 kts | 21° |
| 2026-04-24 23:14 | 47.61481 | 3.57494 | 23166 ft | 444 kts | 22° |
| 2026-04-24 23:14 | 47.64314 | 3.59200 | 22391 ft | 440 kts | 22° |
| 2026-04-24 23:14 | 47.67134 | 3.60899 | 21676 ft | 436 kts | 22° |
| 2026-04-24 23:15 | 47.69929 | 3.62586 | 20975 ft | 431 kts | 22° |
| 2026-04-24 23:15 | 47.72699 | 3.64259 | 20259 ft | 428 kts | 22° |
| 2026-04-24 23:15 | 47.75449 | 3.65923 | 19567 ft | 425 kts | 22° |
| 2026-04-24 23:15 | 47.78176 | 3.67575 | 18871 ft | 422 kts | 23° |
| 2026-04-24 23:16 | 47.80898 | 3.69225 | 18144 ft | 420 kts | 23° |
| 2026-04-24 23:16 | 47.83598 | 3.70864 | 17412 ft | 417 kts | 22° |
| 2026-04-24 23:16 | 47.86270 | 3.72488 | 16726 ft | 414 kts | 22° |
| 2026-04-24 23:16 | 47.88907 | 3.74093 | 15964 ft | 413 kts | 22° |
| 2026-04-24 23:17 | 47.91564 | 3.75712 | 15267 ft | 411 kts | 22° |
| 2026-04-24 23:17 | 47.94200 | 3.77320 | 14587 ft | 408 kts | 22° |
| 2026-04-24 23:17 | 47.96820 | 3.78920 | 13965 ft | 405 kts | 22° |
| 2026-04-24 23:17 | 47.99428 | 3.80514 | 13251 ft | 403 kts | 22° |
| 2026-04-24 23:18 | 48.02016 | 3.82098 | 12644 ft | 399 kts | 22° |
| 2026-04-24 23:18 | 48.04563 | 3.83657 | 12192 ft | 391 kts | 22° |
| 2026-04-24 23:18 | 48.07046 | 3.85178 | 11942 ft | 379 kts | 22° |
| 2026-04-24 23:18 | 48.09439 | 3.86646 | 11725 ft | 366 kts | 22° |
| 2026-04-24 23:19 | 48.11730 | 3.88052 | 11540 ft | 355 kts | 22° |
| 2026-04-24 23:19 | 48.13981 | 3.89437 | 11346 ft | 344 kts | 22° |
| 2026-04-24 23:19 | 48.16163 | 3.90780 | 11177 ft | 333 kts | 22° |
| 2026-04-24 23:19 | 48.18279 | 3.92085 | 11002 ft | 323 kts | 22° |
| 2026-04-24 23:20 | 48.20326 | 3.93349 | 10845 ft | 314 kts | 22° |
| 2026-04-24 23:20 | 48.22318 | 3.94579 | 10685 ft | 304 kts | 22° |
| 2026-04-24 23:20 | 48.24243 | 3.95771 | 10549 ft | 296 kts | 22° |
| 2026-04-24 23:20 | 48.26060 | 3.97124 | 10331 ft | 290 kts | 31° |
| 2026-04-24 23:21 | 48.27758 | 3.98684 | 10167 ft | 282 kts | 31° |
| 2026-04-24 23:21 | 48.29423 | 4.00180 | 9984 ft | 275 kts | 30° |
| 2026-04-24 23:21 | 48.31062 | 4.01636 | 9668 ft | 273 kts | 30° |
| 2026-04-24 23:21 | 48.32700 | 4.03080 | 9368 ft | 272 kts | 30° |
| 2026-04-24 23:22 | 48.34305 | 4.04491 | 9072 ft | 269 kts | 30° |
| 2026-04-24 23:22 | 48.35915 | 4.05903 | 8783 ft | 267 kts | 30° |
| 2026-04-24 23:22 | 48.37535 | 4.07322 | 8485 ft | 265 kts | 29° |
| 2026-04-24 23:22 | 48.39105 | 4.08699 | 8203 ft | 263 kts | 30° |
| 2026-04-24 23:23 | 48.40681 | 4.10081 | 7931 ft | 261 kts | 30° |
| 2026-04-24 23:23 | 48.42242 | 4.11450 | 7649 ft | 259 kts | 30° |
| 2026-04-24 23:23 | 48.43794 | 4.12813 | 7370 ft | 257 kts | 30° |
| 2026-04-24 23:23 | 48.45337 | 4.14169 | 7086 ft | 256 kts | 30° |
| 2026-04-24 23:24 | 48.46868 | 4.15515 | 6808 ft | 255 kts | 30° |
| 2026-04-24 23:24 | 48.48395 | 4.16858 | 6516 ft | 253 kts | 30° |
| 2026-04-24 23:24 | 48.49917 | 4.18199 | 6239 ft | 252 kts | 30° |
| 2026-04-24 23:24 | 48.51429 | 4.19531 | 5951 ft | 251 kts | 30° |
| 2026-04-24 23:25 | 48.52931 | 4.20855 | 5681 ft | 250 kts | 30° |
| 2026-04-24 23:25 | 48.54451 | 4.22195 | 5412 ft | 256 kts | 30° |
| 2026-04-24 23:25 | 48.56002 | 4.23565 | 5132 ft | 260 kts | 30° |
| 2026-04-24 23:25 | 48.57581 | 4.24960 | 4718 ft | 266 kts | 31° |
| 2026-04-24 23:26 | 48.59186 | 4.26379 | 4292 ft | 270 kts | 31° |
| 2026-04-24 23:26 | 48.60781 | 4.27791 | 4197 ft | 259 kts | 32° |
| 2026-04-24 23:26 | 48.61785 | 4.28679 | 4188 ft | 246 kts | 32° |
| 2026-04-24 23:26 | 48.63203 | 4.29934 | 4162 ft | 226 kts | 32° |
| 2026-04-24 23:27 | 48.64933 | 4.31468 | 4091 ft | 210 kts | 32° |
| 2026-04-24 23:27 | 48.66174 | 4.32568 | 3991 ft | 207 kts | 32° |
| 2026-04-24 23:27 | 48.67433 | 4.33686 | 3920 ft | 213 kts | 32° |
| 2026-04-24 23:27 | 48.68300 | 4.34457 | 3852 ft | 214 kts | 32° |
| 2026-04-24 23:28 | 48.69581 | 4.35594 | 3727 ft | 211 kts | 31° |
| 2026-04-24 23:28 | 48.70811 | 4.36687 | 3585 ft | 200 kts | 32° |
| 2026-04-24 23:28 | 48.71998 | 4.37728 | 3351 ft | 194 kts | 27° |
| 2026-04-24 23:28 | 48.73299 | 4.38074 | 3022 ft | 195 kts | 353° |
| 2026-04-24 23:29 | 48.74513 | 4.37244 | 2757 ft | 193 kts | 318° |
| 2026-04-24 23:29 | 48.75285 | 4.35632 | 2545 ft | 186 kts | 296° |
| 2026-04-24 23:29 | 48.75648 | 4.33814 | 2323 ft | 177 kts | 281° |
| 2026-04-24 23:29 | 48.75841 | 4.31977 | 2160 ft | 177 kts | 280° |
| 2026-04-24 23:30 | 48.76038 | 4.30201 | 1888 ft | 168 kts | 282° |
| 2026-04-24 23:30 | 48.76276 | 4.28497 | 1636 ft | 164 kts | 284° |
| 2026-04-24 23:30 | 48.76513 | 4.26803 | 1376 ft | 162 kts | 283° |
| 2026-04-24 23:30 | 48.76712 | 4.25158 | 1165 ft | 155 kts | 284° |
| 2026-04-24 23:31 | 48.76924 | 4.23612 | 941 ft | 144 kts | 284° |
| 2026-04-24 23:31 | 48.77118 | 4.22181 | 782 ft | 134 kts | 286° |
| 2026-04-24 23:31 | 48.77298 | 4.20848 | 641 ft | 126 kts | 284° |
| 2026-04-24 23:31 | 48.77459 | 4.19716 | 603 ft | 81 kts | 283° |
| 2026-04-24 23:32 | 48.77541 | 4.19030 | 597 ft | 65 kts | 281° |
| 2026-04-24 23:32 | 48.77630 | 4.18370 | 596 ft | 63 kts | 280° |
| 2026-04-24 23:32 | 48.77703 | 4.17812 | 591 ft | 48 kts | 281° |
| 2026-04-24 23:32 | 48.77757 | 4.17479 | 588 ft | 17 kts | 312° |
| 2026-04-24 23:33 | 48.77858 | 4.17476 | 589 ft | 16 kts | 14° |
| 2026-04-24 23:33 | 48.77928 | 4.17572 | 589 ft | 13 kts | 91° |
| 2026-04-24 23:33 | 48.77912 | 4.17694 | 590 ft | 12 kts | 100° |
| 2026-04-24 23:33 | 48.77892 | 4.17857 | 591 ft | 22 kts | 100° |
| 2026-04-24 23:34 | 48.77851 | 4.18162 | 593 ft | 35 kts | 99° |
| 2026-04-24 23:34 | 48.77812 | 4.18457 | 595 ft | 21 kts | 101° |
| 2026-04-24 23:34 | 48.77790 | 4.18636 | 596 ft | 10 kts | 101° |
| 2026-04-24 23:34 | 48.77816 | 4.18736 | 597 ft | 11 kts | 32° |
| 2026-04-24 23:35 | 48.77871 | 4.18798 | 597 ft | 2 kts | 62° |
| 2026-04-24 23:35 | 48.77875 | 4.18807 | 597 ft | 2 kts | 58° |
| 2026-04-24 23:35 | 48.77888 | 4.18822 | 597 ft | 3 kts | 24° |
| 2026-04-24 23:35 | 48.77925 | 4.18836 | 597 ft | 8 kts | 12° |
| 2026-04-24 23:36 | 48.77972 | 4.18851 | 597 ft | 5 kts | 11° |
| 2026-04-24 23:36 | 48.77990 | 4.18856 | 597 ft | 1 kts | 11° |
| 2026-04-24 23:36 | 48.77995 | 4.18858 | 597 ft | 0 kts | 11° |